首页
METAR-TAF:

METAR-TAF

机场 :

卡瓦拉亚历山大大帝国际机场

卡瓦拉, 希腊

纬度: 40-59N, 经度: 024-36E, 海拔: 5米

当前天气观测

该预报发布于4小时和58分钟前的20:20 UTC
风速4节,风向
温度 20°C
湿度 94%
气压 1006 hPa
能见度10公里或以上
少量云层高于2500英尺, 塔状积云.
散云层高于3000英尺
多云层高于8000英尺

METAR: LGKV 172020Z 10004KT 9999 FEW025TCU SCT030 BKN080 20/19 Q1006 RERA

时间: 04:18 (01:18 UTC)

预报

该预报发布于2小时和18分钟前的23:00 UTC
预报有效从18日的 00点(UTC)到 18日的 09点(UTC)
风速5节,风向多变
能见度10公里或以上
少量云层高于2500英尺
散云层高于3000英尺
多云层高于8000英尺

TAF: LGKV 172300Z 1800/1809 VRB05KT 9999 FEW025 SCT030 BKN080

超过4000个机场的气象观测和天气预报(METAR&TAF报告)。

可查询的气象台以黄色和红色小点在地图上表示。

将鼠标移到小点上方,可查看气象台名称。

然后点击查看天气观测和预报。

如需切换地图:点击带黑十字的绿色按钮放大地图;点击带横线的绿色按钮缩小地图;或者点击绿色箭头查看邻近地区的地图。


METAR-TAF: